Main page
METAR-TAF:

METAR-TAF

Airports :

Aeroparque Jorge Newbery

Buenos Aires, Argentina

latitude: 34-34S, longitude: 058-25W, elevation: 6 m

Current weather observation

The report was made 24 minutes ago, at 04:00 UTC
Wind 11 kt from the East
Temperature 21°C
Humidity 73%
Pressure 1014 hPa
Visibility 10 km or more
no clouds below 1500 m and no cumulonimbus

METAR: SABE 030400Z 08011KT CAVOK 21/16 Q1014 NOSIG RMK PP000

Time: 01:24 (04:24 UTC)

Forecast

The report was made 5 hours and 24 minutes ago, at 23:00 UTC
Forecast valid from 03 at 00 UTC to 03 at 24 UTC
Wind 15 kt from the East/Southeast
Visibility 10 km or more
no clouds below 1500 m and no cumulonimbus
Becoming
from 03 at 05 UTC to 03 at 07 UTC
Wind 15 kt from the Northeast
Becoming
from 03 at 13 UTC to 03 at 16 UTC
Wind 10 kt from the East

TAF: SABE 022300Z 0300/0324 11015KT CAVOK TX26/0318Z TN19/0310Z BECMG 0305/0307 04015KT BECMG 0313/0316 09010KT

Weather observations and forecasts of more than 4000 airports (METAR and TAF reports).

The available stations are represented by yellow and red dots on the map.

Hover mouse over dot to see the name of the station.

Then click to see weather observations and forecasts.

To change the map : click on the green buttons with a black cross to zoom in, on the green button with a dash to zoom out, or on the green arrows for adjacent maps.


METAR-TAF: